Quick Links (Output Below):   Max & Min Temps   /   Climate Reports   /   Zone Forecasts
River Forecasts   /   Forestry Forecasts   /   Aviation Forecasts   /   Radars   /   Features

Terminal Aerodrome Forecast (Texarkana)

Pick a Site:
Arkadelphia | El Dorado | Fayetteville | Fort Smith | Harrison | Highfill | Hot Springs | Jonesboro
Little Rock | Monticello | Mountain Home | Pine Bluff | Texarkana
 Forecast 

KTXK 042320Z 0500/0524 30009KT P6SM SKC
     FM050300 34006KT P6SM SKC
     FM050600 32004KT P6SM SKC
     FM051600 36008KT P6SM SKC
     FM051800 33008G15KT P6SM SKC=


 Latest METARs (Observations) 
How to Decode METARs
01Z KTXK 050053Z 28007KT 10SM CLR 24/12 A2988 RMK AO2 SLP113
         T02440117
         
00Z KTXK 042353Z 28010KT 10SM CLR 26/11 A2987 RMK AO2 SLP112 T02560111
         10267 20250 56008
         
***** Today's Observations (Above) *****


23Z KTXK 042253Z 30012KT 10SM CLR 27/11 A2987 RMK AO2 SLP113
         T02670111
         
22Z KTXK 042153Z 27015G21KT 10SM CLR 27/11 A2988 RMK AO2 SLP113
         T02670111
         
21Z KTXK 042053Z 29015G22KT 10SM CLR 27/11 A2990 RMK AO2 SLP120
         T02670106 56022
         
20Z KTXK 041953Z 27012G24KT 10SM CLR 26/09 A2992 RMK AO2 SLP126
         T02610089
         
19Z KTXK 041853Z 31014G23KT 10SM CLR 26/09 A2993 RMK AO2 SLP132
         T02560094
         
18Z KTXK 041753Z 28011KT 10SM CLR 25/11 A2996 RMK AO2 SLP142 T02500106
         10250 20106 58016
         
17Z KTXK 041653Z 28010G17KT 10SM CLR 23/11 A2999 RMK AO2 SLP153
         T02330106
         
16Z KTXK 041553Z 27013KT 10SM CLR 22/11 A3001 RMK AO2 SLP158
         T02220106
         
***** Yesterday's Observations (Above) *****


Back to Main Page
http://www.srh.noaa.gov/lzk/qfcst.php

USA.gov is the U.S. government's official web portal to all federal, state and local government web resources and services.